Bellville, TX (77418)

4:42 AM CDT on August 30, 2016 (GMT -0500)
Piney Creek | | Change Station

Elev 330 ft 30.01 °N, 96.28 °W | Updated 49 seconds ago

Overcast
Overcast
75.8 °F
Feels Like 75 °F
N
0.0
Wind Variable Wind from NE
Gusts 0.0 mph

Today
High -- | Low -- °F
--% Chance of Precip.
Yesterday
High -- | Low -- °F
Precip. -- in
Pressure 29.97 in
Visibility 10.0 miles
Clouds Scattered Clouds 400 ft
Overcast 12000 ft
Heat Index 75 °F
Dew Point 75 °F
Humidity 96%
Rainfall 0.00 in
Snow Depth Not available.
7:01 AM 7:49 PM
Waning Crescent, 4% visible
METAR K11R 300935Z AUTO 03004KT 10SM SCT004 OVC120 24/23 A2997 RMK AO2 LTG DSNT S T02380232
Pressure 29.97 in
Visibility 10.0 miles
Clouds Scattered Clouds 400 ft
Overcast 12000 ft
Heat Index 75 °F
Dew Point 75 °F
Humidity 96%
Rainfall 0.00 in
Snow Depth Not available.
7:01 AM 7:49 PM
Waning Crescent, 4% visible
METAR K11R 300935Z AUTO 03004KT 10SM SCT004 OVC120 24/23 A2997 RMK AO2 LTG DSNT S T02380232

10-Day Weather Forecast

Almanac

Astronomy

Aug. 30, 2016 Rise Set
Actual Time
Civil Twilight
Nautical Twilight
Astronomical Twilight
Moon
Length of Visible Light
Length of Day
Tomorrow will be .
, % of the Moon is Illuminated

Today's Extremes

State Highs State Lows

Community

WunderPhotos

Upload Photos

1,935,795 photos uploaded!

WunderBlog® & News

Nearby

Air Quality

  Air Quality AQ Index Pollutant
Not available.

Snow Depth

Station Depth Elevation

Earthquake Activity

City Distance Mag. Time & Date
Minimum magnitude displayed is 2.5.

Coastal Water Temperatures

Place Temperature

Stations

Nearby Weather Stations

Station Location Temp. Windchill Dew Point Humidity Wind Precip. Elev Updated Type
                   

Watches & Warnings

There are currently no watches in effect.